sensor_id;sensor_type;location;lat;lon;timestamp;P1;durP1;ratioP1;P2;durP2;ratioP2
4001;SDS011;2015;48.670;9.060;2022-08-19T00:02:00;20.30;;;16.77;;
4001;SDS011;2015;48.670;9.060;2022-08-19T00:04:33;18.83;;;16.23;;
4001;SDS011;2015;48.670;9.060;2022-08-19T00:07:07;23.40;;;19.07;;
4001;SDS011;2015;48.670;9.060;2022-08-19T00:09:39;20.93;;;17.53;;
4001;SDS011;2015;48.670;9.060;2022-08-19T00:12:11;20.40;;;17.10;;
4001;SDS011;2015;48.670;9.060;2022-08-19T00:14:43;20.60;;;17.53;;
4001;SDS011;2015;48.670;9.060;2022-08-19T00:17:15;19.93;;;16.60;;
4001;SDS011;2015;48.670;9.060;2022-08-19T00:19:47;22.83;;;18.07;;
4001;SDS011;2015;48.670;9.060;2022-08-19T00:22:19;22.37;;;18.17;;
4001;SDS011;2015;48.670;9.060;2022-08-19T00:24:51;20.27;;;16.13;;
4001;SDS011;2015;48.670;9.060;2022-08-19T00:27:24;20.23;;;17.37;;
4001;SDS011;2015;48.670;9.060;2022-08-19T00:29:57;22.27;;;18.93;;
4001;SDS011;2015;48.670;9.060;2022-08-19T00:32:31;25.30;;;17.00;;
4001;SDS011;2015;48.670;9.060;2022-08-19T00:35:05;23.97;;;17.23;;
4001;SDS011;2015;48.670;9.060;2022-08-19T00:37:38;22.93;;;17.43;;
4001;SDS011;2015;48.670;9.060;2022-08-19T00:40:14;23.37;;;17.67;;
4001;SDS011;2015;48.670;9.060;2022-08-19T00:42:48;26.20;;;19.97;;
4001;SDS011;2015;48.670;9.060;2022-08-19T00:45:21;22.77;;;17.73;;
4001;SDS011;2015;48.670;9.060;2022-08-19T00:47:55;24.90;;;18.67;;
4001;SDS011;2015;48.670;9.060;2022-08-19T00:50:27;27.40;;;19.33;;
4001;SDS011;2015;48.670;9.060;2022-08-19T00:52:59;22.47;;;18.27;;
4001;SDS011;2015;48.670;9.060;2022-08-19T00:55:35;25.80;;;18.23;;
4001;SDS011;2015;48.670;9.060;2022-08-19T00:58:10;29.63;;;22.13;;
4001;SDS011;2015;48.670;9.060;2022-08-19T01:00:45;28.30;;;19.33;;
4001;SDS011;2015;48.670;9.060;2022-08-19T01:03:19;26.67;;;20.07;;
4001;SDS011;2015;48.670;9.060;2022-08-19T01:05:52;29.83;;;19.47;;
4001;SDS011;2015;48.670;9.060;2022-08-19T01:08:25;34.17;;;21.60;;
4001;SDS011;2015;48.670;9.060;2022-08-19T01:10:58;29.03;;;19.43;;
4001;SDS011;2015;48.670;9.060;2022-08-19T01:13:32;25.77;;;19.90;;
4001;SDS011;2015;48.670;9.060;2022-08-19T01:16:20;26.17;;;18.60;;
4001;SDS011;2015;48.670;9.060;2022-08-19T01:18:54;26.92;;;19.70;;
4001;SDS011;2015;48.670;9.060;2022-08-19T01:21:31;22.90;;;18.47;;
4001;SDS011;2015;48.670;9.060;2022-08-19T01:24:17;27.20;;;19.87;;
4001;SDS011;2015;48.670;9.060;2022-08-19T01:26:49;26.23;;;20.17;;
4001;SDS011;2015;48.670;9.060;2022-08-19T01:29:21;32.20;;;22.77;;
4001;SDS011;2015;48.670;9.060;2022-08-19T01:31:55;25.63;;;20.30;;
4001;SDS011;2015;48.670;9.060;2022-08-19T01:34:27;29.90;;;20.90;;
4001;SDS011;2015;48.670;9.060;2022-08-19T01:36:59;29.97;;;20.87;;
4001;SDS011;2015;48.670;9.060;2022-08-19T01:39:36;30.13;;;21.93;;
4001;SDS011;2015;48.670;9.060;2022-08-19T01:42:10;29.33;;;22.10;;
4001;SDS011;2015;48.670;9.060;2022-08-19T01:44:43;33.47;;;21.87;;
4001;SDS011;2015;48.670;9.060;2022-08-19T01:47:15;25.60;;;20.60;;
4001;SDS011;2015;48.670;9.060;2022-08-19T01:49:48;27.53;;;19.87;;
4001;SDS011;2015;48.670;9.060;2022-08-19T01:52:20;31.37;;;20.80;;
4001;SDS011;2015;48.670;9.060;2022-08-19T01:54:51;31.90;;;22.00;;
4001;SDS011;2015;48.670;9.060;2022-08-19T01:57:23;26.57;;;20.63;;
4001;SDS011;2015;48.670;9.060;2022-08-19T01:59:55;26.07;;;21.53;;
4001;SDS011;2015;48.670;9.060;2022-08-19T02:02:27;26.03;;;20.27;;
4001;SDS011;2015;48.670;9.060;2022-08-19T02:04:59;28.83;;;22.27;;
4001;SDS011;2015;48.670;9.060;2022-08-19T02:07:31;30.17;;;21.87;;
4001;SDS011;2015;48.670;9.060;2022-08-19T02:10:05;31.50;;;22.03;;
4001;SDS011;2015;48.670;9.060;2022-08-19T02:12:43;28.83;;;21.80;;
4001;SDS011;2015;48.670;9.060;2022-08-19T02:15:18;31.43;;;21.90;;
4001;SDS011;2015;48.670;9.060;2022-08-19T02:17:51;29.10;;;21.87;;
4001;SDS011;2015;48.670;9.060;2022-08-19T02:20:22;31.10;;;20.70;;
4001;SDS011;2015;48.670;9.060;2022-08-19T02:22:55;29.07;;;20.90;;
4001;SDS011;2015;48.670;9.060;2022-08-19T02:25:26;31.83;;;22.60;;
4001;SDS011;2015;48.670;9.060;2022-08-19T02:27:58;30.20;;;21.53;;
4001;SDS011;2015;48.670;9.060;2022-08-19T02:30:32;31.70;;;21.83;;
4001;SDS011;2015;48.670;9.060;2022-08-19T02:33:04;29.60;;;21.50;;
4001;SDS011;2015;48.670;9.060;2022-08-19T02:35:36;33.20;;;22.50;;
4001;SDS011;2015;48.670;9.060;2022-08-19T02:38:08;30.40;;;21.47;;
4001;SDS011;2015;48.670;9.060;2022-08-19T02:41:03;32.58;;;22.90;;
4001;SDS011;2015;48.670;9.060;2022-08-19T02:43:36;33.77;;;23.10;;
4001;SDS011;2015;48.670;9.060;2022-08-19T02:46:16;31.87;;;25.20;;
4001;SDS011;2015;48.670;9.060;2022-08-19T02:48:53;33.13;;;22.70;;
4001;SDS011;2015;48.670;9.060;2022-08-19T02:51:30;31.90;;;23.43;;
4001;SDS011;2015;48.670;9.060;2022-08-19T02:54:12;31.43;;;22.80;;
4001;SDS011;2015;48.670;9.060;2022-08-19T02:56:45;30.93;;;23.60;;
4001;SDS011;2015;48.670;9.060;2022-08-19T02:59:17;30.00;;;23.27;;
4001;SDS011;2015;48.670;9.060;2022-08-19T03:01:53;34.00;;;23.63;;
4001;SDS011;2015;48.670;9.060;2022-08-19T03:04:25;31.60;;;23.83;;
4001;SDS011;2015;48.670;9.060;2022-08-19T03:06:57;32.63;;;22.77;;
4001;SDS011;2015;48.670;9.060;2022-08-19T03:09:41;36.40;;;26.10;;
4001;SDS011;2015;48.670;9.060;2022-08-19T03:12:16;32.33;;;23.70;;
4001;SDS011;2015;48.670;9.060;2022-08-19T03:14:47;28.50;;;22.20;;
4001;SDS011;2015;48.670;9.060;2022-08-19T03:17:19;34.33;;;24.27;;
4001;SDS011;2015;48.670;9.060;2022-08-19T03:19:51;29.17;;;23.70;;
4001;SDS011;2015;48.670;9.060;2022-08-19T03:22:23;34.13;;;24.47;;
4001;SDS011;2015;48.670;9.060;2022-08-19T03:24:56;34.33;;;24.60;;
4001;SDS011;2015;48.670;9.060;2022-08-19T03:27:28;34.70;;;24.57;;
4001;SDS011;2015;48.670;9.060;2022-08-19T03:30:05;37.03;;;25.57;;
4001;SDS011;2015;48.670;9.060;2022-08-19T03:32:41;39.70;;;26.60;;
4001;SDS011;2015;48.670;9.060;2022-08-19T03:35:15;34.13;;;26.20;;
4001;SDS011;2015;48.670;9.060;2022-08-19T03:37:48;37.40;;;25.07;;
4001;SDS011;2015;48.670;9.060;2022-08-19T03:40:19;35.60;;;24.83;;
4001;SDS011;2015;48.670;9.060;2022-08-19T03:42:51;37.77;;;27.40;;
4001;SDS011;2015;48.670;9.060;2022-08-19T03:45:26;30.13;;;24.03;;
4001;SDS011;2015;48.670;9.060;2022-08-19T03:47:59;36.43;;;25.80;;
4001;SDS011;2015;48.670;9.060;2022-08-19T03:50:30;35.50;;;26.90;;
4001;SDS011;2015;48.670;9.060;2022-08-19T03:53:02;37.90;;;26.83;;
4001;SDS011;2015;48.670;9.060;2022-08-19T03:55:38;39.30;;;26.17;;
4001;SDS011;2015;48.670;9.060;2022-08-19T03:58:11;40.90;;;28.10;;
4001;SDS011;2015;48.670;9.060;2022-08-19T04:00:43;37.83;;;26.80;;
4001;SDS011;2015;48.670;9.060;2022-08-19T04:03:16;41.90;;;27.53;;
4001;SDS011;2015;48.670;9.060;2022-08-19T04:05:50;36.70;;;26.93;;
4001;SDS011;2015;48.670;9.060;2022-08-19T04:08:21;38.63;;;27.60;;
4001;SDS011;2015;48.670;9.060;2022-08-19T04:10:53;40.10;;;28.10;;
4001;SDS011;2015;48.670;9.060;2022-08-19T04:13:25;42.43;;;27.40;;
4001;SDS011;2015;48.670;9.060;2022-08-19T04:15:57;42.70;;;29.70;;
4001;SDS011;2015;48.670;9.060;2022-08-19T04:18:29;41.83;;;29.07;;
4001;SDS011;2015;48.670;9.060;2022-08-19T04:21:07;37.97;;;28.43;;
4001;SDS011;2015;48.670;9.060;2022-08-19T04:23:39;40.13;;;28.20;;
4001;SDS011;2015;48.670;9.060;2022-08-19T04:26:17;38.77;;;27.83;;
4001;SDS011;2015;48.670;9.060;2022-08-19T04:28:54;43.83;;;29.17;;
4001;SDS011;2015;48.670;9.060;2022-08-19T04:31:27;38.70;;;28.23;;
4001;SDS011;2015;48.670;9.060;2022-08-19T04:34:03;41.40;;;29.77;;
4001;SDS011;2015;48.670;9.060;2022-08-19T04:36:37;39.33;;;30.00;;
4001;SDS011;2015;48.670;9.060;2022-08-19T04:39:14;41.10;;;28.40;;
4001;SDS011;2015;48.670;9.060;2022-08-19T04:41:47;37.60;;;29.47;;
4001;SDS011;2015;48.670;9.060;2022-08-19T04:44:38;39.13;;;27.80;;
4001;SDS011;2015;48.670;9.060;2022-08-19T04:47:16;41.53;;;28.77;;
4001;SDS011;2015;48.670;9.060;2022-08-19T04:50:08;34.53;;;25.50;;
4001;SDS011;2015;48.670;9.060;2022-08-19T04:52:42;38.60;;;27.30;;
4001;SDS011;2015;48.670;9.060;2022-08-19T04:55:14;38.77;;;27.17;;
4001;SDS011;2015;48.670;9.060;2022-08-19T04:57:46;39.63;;;25.93;;
4001;SDS011;2015;48.670;9.060;2022-08-19T05:00:18;37.53;;;27.20;;
4001;SDS011;2015;48.670;9.060;2022-08-19T05:02:50;43.83;;;29.53;;
4001;SDS011;2015;48.670;9.060;2022-08-19T05:05:22;41.20;;;29.90;;
4001;SDS011;2015;48.670;9.060;2022-08-19T05:07:54;40.10;;;27.90;;
4001;SDS011;2015;48.670;9.060;2022-08-19T05:10:27;41.37;;;28.60;;
4001;SDS011;2015;48.670;9.060;2022-08-19T05:12:58;37.67;;;27.47;;
4001;SDS011;2015;48.670;9.060;2022-08-19T05:15:31;41.03;;;27.73;;
4001;SDS011;2015;48.670;9.060;2022-08-19T05:18:02;43.80;;;30.10;;
4001;SDS011;2015;48.670;9.060;2022-08-19T05:21:04;38.60;;;29.17;;
4001;SDS011;2015;48.670;9.060;2022-08-19T05:23:56;42.83;;;29.30;;
4001;SDS011;2015;48.670;9.060;2022-08-19T05:26:28;41.07;;;28.93;;
4001;SDS011;2015;48.670;9.060;2022-08-19T05:29:00;40.97;;;29.37;;
4001;SDS011;2015;48.670;9.060;2022-08-19T05:31:33;39.57;;;27.60;;
4001;SDS011;2015;48.670;9.060;2022-08-19T05:34:12;37.50;;;27.63;;
4001;SDS011;2015;48.670;9.060;2022-08-19T05:36:51;40.37;;;30.60;;
4001;SDS011;2015;48.670;9.060;2022-08-19T05:39:29;44.43;;;29.93;;
4001;SDS011;2015;48.670;9.060;2022-08-19T05:42:10;35.60;;;25.97;;
4001;SDS011;2015;48.670;9.060;2022-08-19T05:44:43;43.00;;;28.30;;
4001;SDS011;2015;48.670;9.060;2022-08-19T05:47:16;37.63;;;25.67;;
4001;SDS011;2015;48.670;9.060;2022-08-19T05:49:49;41.23;;;29.07;;
4001;SDS011;2015;48.670;9.060;2022-08-19T05:52:22;38.83;;;26.87;;
4001;SDS011;2015;48.670;9.060;2022-08-19T05:54:56;40.40;;;28.73;;
4001;SDS011;2015;48.670;9.060;2022-08-19T05:57:28;42.60;;;29.57;;
4001;SDS011;2015;48.670;9.060;2022-08-19T06:00:00;41.57;;;27.20;;
4001;SDS011;2015;48.670;9.060;2022-08-19T06:02:36;44.70;;;29.27;;
4001;SDS011;2015;48.670;9.060;2022-08-19T06:05:08;42.07;;;29.90;;
4001;SDS011;2015;48.670;9.060;2022-08-19T06:07:40;45.30;;;27.90;;
4001;SDS011;2015;48.670;9.060;2022-08-19T06:10:12;36.47;;;26.40;;
4001;SDS011;2015;48.670;9.060;2022-08-19T06:12:44;39.80;;;27.43;;
4001;SDS011;2015;48.670;9.060;2022-08-19T06:15:16;43.27;;;26.33;;
4001;SDS011;2015;48.670;9.060;2022-08-19T06:17:48;38.30;;;28.40;;
4001;SDS011;2015;48.670;9.060;2022-08-19T06:20:19;41.70;;;27.53;;
4001;SDS011;2015;48.670;9.060;2022-08-19T06:23:11;45.80;;;31.90;;
4001;SDS011;2015;48.670;9.060;2022-08-19T06:25:47;39.80;;;30.10;;
4001;SDS011;2015;48.670;9.060;2022-08-19T06:28:19;38.00;;;28.30;;
4001;SDS011;2015;48.670;9.060;2022-08-19T06:30:52;38.57;;;29.83;;
4001;SDS011;2015;48.670;9.060;2022-08-19T06:33:24;41.07;;;28.47;;
4001;SDS011;2015;48.670;9.060;2022-08-19T06:35:56;41.17;;;28.47;;
4001;SDS011;2015;48.670;9.060;2022-08-19T06:38:28;40.20;;;28.20;;
4001;SDS011;2015;48.670;9.060;2022-08-19T06:41:01;37.90;;;26.97;;
4001;SDS011;2015;48.670;9.060;2022-08-19T06:43:38;34.67;;;27.07;;
4001;SDS011;2015;48.670;9.060;2022-08-19T06:46:14;37.10;;;27.67;;
4001;SDS011;2015;48.670;9.060;2022-08-19T06:48:47;39.40;;;26.87;;
4001;SDS011;2015;48.670;9.060;2022-08-19T06:51:20;40.80;;;27.90;;
4001;SDS011;2015;48.670;9.060;2022-08-19T06:53:54;40.40;;;28.43;;
4001;SDS011;2015;48.670;9.060;2022-08-19T06:56:28;32.67;;;26.03;;
4001;SDS011;2015;48.670;9.060;2022-08-19T06:59:07;38.13;;;27.17;;
4001;SDS011;2015;48.670;9.060;2022-08-19T07:01:42;35.13;;;25.27;;
4001;SDS011;2015;48.670;9.060;2022-08-19T07:04:20;40.17;;;28.60;;
4001;SDS011;2015;48.670;9.060;2022-08-19T07:07:01;35.07;;;27.50;;
4001;SDS011;2015;48.670;9.060;2022-08-19T07:09:50;35.33;;;26.10;;
4001;SDS011;2015;48.670;9.060;2022-08-19T07:12:31;33.00;;;24.27;;
4001;SDS011;2015;48.670;9.060;2022-08-19T07:15:08;40.63;;;27.37;;
4001;SDS011;2015;48.670;9.060;2022-08-19T07:17:40;37.30;;;25.83;;
4001;SDS011;2015;48.670;9.060;2022-08-19T07:20:14;34.73;;;25.17;;
4001;SDS011;2015;48.670;9.060;2022-08-19T07:22:48;36.80;;;26.37;;
4001;SDS011;2015;48.670;9.060;2022-08-19T07:25:20;35.73;;;26.30;;
4001;SDS011;2015;48.670;9.060;2022-08-19T07:28:03;31.77;;;24.73;;
4001;SDS011;2015;48.670;9.060;2022-08-19T07:30:38;35.30;;;25.73;;
4001;SDS011;2015;48.670;9.060;2022-08-19T07:33:14;32.60;;;24.17;;
4001;SDS011;2015;48.670;9.060;2022-08-19T07:35:45;31.83;;;24.07;;
4001;SDS011;2015;48.670;9.060;2022-08-19T07:38:18;33.77;;;24.63;;
4001;SDS011;2015;48.670;9.060;2022-08-19T07:40:50;33.17;;;24.17;;
4001;SDS011;2015;48.670;9.060;2022-08-19T07:43:22;33.87;;;24.33;;
4001;SDS011;2015;48.670;9.060;2022-08-19T07:46:05;32.03;;;23.60;;
4001;SDS011;2015;48.670;9.060;2022-08-19T07:48:43;31.53;;;23.10;;
4001;SDS011;2015;48.670;9.060;2022-08-19T07:51:18;30.17;;;22.03;;
4001;SDS011;2015;48.670;9.060;2022-08-19T07:54:07;29.17;;;23.17;;
4001;SDS011;2015;48.670;9.060;2022-08-19T07:56:39;35.20;;;24.63;;
4001;SDS011;2015;48.670;9.060;2022-08-19T07:59:11;33.30;;;22.97;;
4001;SDS011;2015;48.670;9.060;2022-08-19T08:01:43;30.73;;;23.63;;
4001;SDS011;2015;48.670;9.060;2022-08-19T08:04:16;28.50;;;22.20;;
4001;SDS011;2015;48.670;9.060;2022-08-19T08:07:07;35.73;;;23.97;;
4001;SDS011;2015;48.670;9.060;2022-08-19T08:10:03;32.10;;;23.30;;
4001;SDS011;2015;48.670;9.060;2022-08-19T08:12:44;33.73;;;24.30;;
4001;SDS011;2015;48.670;9.060;2022-08-19T08:15:37;31.17;;;23.30;;
4001;SDS011;2015;48.670;9.060;2022-08-19T08:18:13;29.70;;;22.40;;
4001;SDS011;2015;48.670;9.060;2022-08-19T08:20:45;33.73;;;23.30;;
4001;SDS011;2015;48.670;9.060;2022-08-19T08:23:17;28.90;;;21.80;;
4001;SDS011;2015;48.670;9.060;2022-08-19T08:25:57;35.27;;;24.57;;
4001;SDS011;2015;48.670;9.060;2022-08-19T08:28:30;34.90;;;21.13;;
4001;SDS011;2015;48.670;9.060;2022-08-19T08:31:02;28.00;;;22.07;;
4001;SDS011;2015;48.670;9.060;2022-08-19T08:33:40;29.67;;;22.63;;
4001;SDS011;2015;48.670;9.060;2022-08-19T08:36:13;25.43;;;22.40;;
4001;SDS011;2015;48.670;9.060;2022-08-19T08:38:45;26.10;;;21.90;;
4001;SDS011;2015;48.670;9.060;2022-08-19T08:41:20;28.73;;;21.93;;
4001;SDS011;2015;48.670;9.060;2022-08-19T08:44:03;30.13;;;23.60;;
4001;SDS011;2015;48.670;9.060;2022-08-19T08:54:42;29.57;;;24.23;;
4001;SDS011;2015;48.670;9.060;2022-08-19T09:00:20;29.27;;;24.80;;
4001;SDS011;2015;48.670;9.060;2022-08-19T09:02:56;36.47;;;26.27;;
4001;SDS011;2015;48.670;9.060;2022-08-19T09:11:33;32.10;;;24.57;;
4001;SDS011;2015;48.670;9.060;2022-08-19T09:17:29;33.63;;;26.23;;
4001;SDS011;2015;48.670;9.060;2022-08-19T09:22:56;32.90;;;23.67;;
4001;SDS011;2015;48.670;9.060;2022-08-19T09:25:29;35.73;;;24.00;;
4001;SDS011;2015;48.670;9.060;2022-08-19T09:28:03;26.57;;;21.80;;
4001;SDS011;2015;48.670;9.060;2022-08-19T09:30:50;28.53;;;24.20;;
4001;SDS011;2015;48.670;9.060;2022-08-19T09:33:23;30.53;;;24.03;;
4001;SDS011;2015;48.670;9.060;2022-08-19T09:36:05;35.23;;;24.93;;
4001;SDS011;2015;48.670;9.060;2022-08-19T09:38:40;29.30;;;24.33;;
4001;SDS011;2015;48.670;9.060;2022-08-19T09:41:18;29.03;;;23.77;;
4001;SDS011;2015;48.670;9.060;2022-08-19T09:43:54;26.17;;;22.60;;
4001;SDS011;2015;48.670;9.060;2022-08-19T09:46:27;31.58;;;24.30;;
4001;SDS011;2015;48.670;9.060;2022-08-19T09:49:00;28.07;;;21.50;;
4001;SDS011;2015;48.670;9.060;2022-08-19T09:51:36;30.50;;;21.80;;
4001;SDS011;2015;48.670;9.060;2022-08-19T09:54:09;26.63;;;21.80;;
4001;SDS011;2015;48.670;9.060;2022-08-19T09:56:41;29.57;;;23.87;;
4001;SDS011;2015;48.670;9.060;2022-08-19T09:59:14;26.87;;;22.87;;
4001;SDS011;2015;48.670;9.060;2022-08-19T10:01:46;28.70;;;23.40;;
4001;SDS011;2015;48.670;9.060;2022-08-19T10:04:19;28.90;;;21.43;;
4001;SDS011;2015;48.670;9.060;2022-08-19T10:07:14;28.43;;;23.63;;
4001;SDS011;2015;48.670;9.060;2022-08-19T10:09:46;28.43;;;21.50;;
4001;SDS011;2015;48.670;9.060;2022-08-19T10:12:18;30.30;;;21.60;;
4001;SDS011;2015;48.670;9.060;2022-08-19T10:14:50;32.90;;;21.63;;
4001;SDS011;2015;48.670;9.060;2022-08-19T10:17:24;27.07;;;22.47;;
4001;SDS011;2015;48.670;9.060;2022-08-19T10:20:02;25.27;;;20.53;;
4001;SDS011;2015;48.670;9.060;2022-08-19T10:22:35;26.20;;;19.87;;
4001;SDS011;2015;48.670;9.060;2022-08-19T10:25:08;24.00;;;19.93;;
4001;SDS011;2015;48.670;9.060;2022-08-19T10:27:40;24.80;;;20.80;;
4001;SDS011;2015;48.670;9.060;2022-08-19T10:30:18;27.37;;;21.70;;
4001;SDS011;2015;48.670;9.060;2022-08-19T10:32:50;22.63;;;20.10;;
4001;SDS011;2015;48.670;9.060;2022-08-19T10:35:22;26.17;;;19.77;;
4001;SDS011;2015;48.670;9.060;2022-08-19T10:37:57;26.27;;;20.03;;
4001;SDS011;2015;48.670;9.060;2022-08-19T10:40:34;23.70;;;19.57;;
4001;SDS011;2015;48.670;9.060;2022-08-19T10:43:06;20.93;;;18.40;;
4001;SDS011;2015;48.670;9.060;2022-08-19T10:45:38;20.43;;;18.27;;
4001;SDS011;2015;48.670;9.060;2022-08-19T10:48:22;22.47;;;18.00;;
4001;SDS011;2015;48.670;9.060;2022-08-19T10:50:54;20.27;;;18.07;;
4001;SDS011;2015;48.670;9.060;2022-08-19T10:53:54;19.70;;;17.47;;
4001;SDS011;2015;48.670;9.060;2022-08-19T10:56:27;17.50;;;15.33;;
4001;SDS011;2015;48.670;9.060;2022-08-19T11:02:00;21.70;;;16.03;;
4001;SDS011;2015;48.670;9.060;2022-08-19T11:04:32;17.77;;;15.87;;
4001;SDS011;2015;48.670;9.060;2022-08-19T11:07:06;18.37;;;16.37;;
4001;SDS011;2015;48.670;9.060;2022-08-19T11:09:39;17.33;;;14.70;;
4001;SDS011;2015;48.670;9.060;2022-08-19T11:12:13;17.40;;;15.60;;
4001;SDS011;2015;48.670;9.060;2022-08-19T11:14:46;14.70;;;13.30;;
4001;SDS011;2015;48.670;9.060;2022-08-19T11:17:20;17.37;;;15.20;;
4001;SDS011;2015;48.670;9.060;2022-08-19T11:19:54;15.70;;;13.53;;
4001;SDS011;2015;48.670;9.060;2022-08-19T11:22:26;15.63;;;14.03;;
4001;SDS011;2015;48.670;9.060;2022-08-19T11:25:09;16.47;;;14.87;;
4001;SDS011;2015;48.670;9.060;2022-08-19T11:27:42;16.13;;;14.50;;
4001;SDS011;2015;48.670;9.060;2022-08-19T11:30:15;16.33;;;14.57;;
4001;SDS011;2015;48.670;9.060;2022-08-19T11:32:47;15.40;;;13.70;;
4001;SDS011;2015;48.670;9.060;2022-08-19T11:35:19;16.27;;;14.57;;
4001;SDS011;2015;48.670;9.060;2022-08-19T11:37:52;16.37;;;13.93;;
4001;SDS011;2015;48.670;9.060;2022-08-19T11:40:25;15.63;;;13.93;;
4001;SDS011;2015;48.670;9.060;2022-08-19T11:42:56;15.70;;;14.10;;
4001;SDS011;2015;48.670;9.060;2022-08-19T11:45:28;18.30;;;14.10;;
4001;SDS011;2015;48.670;9.060;2022-08-19T11:48:01;17.77;;;15.93;;
4001;SDS011;2015;48.670;9.060;2022-08-19T11:50:33;14.13;;;12.73;;
4001;SDS011;2015;48.670;9.060;2022-08-19T11:53:04;14.90;;;13.40;;
4001;SDS011;2015;48.670;9.060;2022-08-19T11:55:40;17.93;;;14.13;;
4001;SDS011;2015;48.670;9.060;2022-08-19T11:58:15;18.47;;;13.13;;
4001;SDS011;2015;48.670;9.060;2022-08-19T12:00:49;15.20;;;12.93;;
4001;SDS011;2015;48.670;9.060;2022-08-19T12:03:22;16.33;;;14.70;;
4001;SDS011;2015;48.670;9.060;2022-08-19T12:05:54;14.43;;;12.93;;
4001;SDS011;2015;48.670;9.060;2022-08-19T12:08:26;15.90;;;13.33;;
4001;SDS011;2015;48.670;9.060;2022-08-19T12:10:58;14.00;;;12.70;;
4001;SDS011;2015;48.670;9.060;2022-08-19T12:13:32;13.33;;;12.13;;
4001;SDS011;2015;48.670;9.060;2022-08-19T12:16:14;14.13;;;12.60;;
4001;SDS011;2015;48.670;9.060;2022-08-19T12:18:48;15.37;;;12.60;;
4001;SDS011;2015;48.670;9.060;2022-08-19T12:21:24;13.60;;;12.30;;
4001;SDS011;2015;48.670;9.060;2022-08-19T12:24:00;13.50;;;11.90;;
4001;SDS011;2015;48.670;9.060;2022-08-19T12:26:33;12.67;;;11.67;;
4001;SDS011;2015;48.670;9.060;2022-08-19T12:29:23;12.07;;;11.00;;
4001;SDS011;2015;48.670;9.060;2022-08-19T12:31:59;12.00;;;10.97;;
4001;SDS011;2015;48.670;9.060;2022-08-19T12:34:35;12.13;;;11.13;;
4001;SDS011;2015;48.670;9.060;2022-08-19T12:37:08;12.50;;;11.20;;
4001;SDS011;2015;48.670;9.060;2022-08-19T12:39:41;13.00;;;11.60;;
4001;SDS011;2015;48.670;9.060;2022-08-19T12:42:13;15.00;;;11.77;;
4001;SDS011;2015;48.670;9.060;2022-08-19T12:44:46;12.40;;;11.07;;
4001;SDS011;2015;48.670;9.060;2022-08-19T12:47:18;11.13;;;10.23;;
4001;SDS011;2015;48.670;9.060;2022-08-19T12:49:50;12.27;;;11.10;;
4001;SDS011;2015;48.670;9.060;2022-08-19T12:52:26;11.03;;;10.10;;
4001;SDS011;2015;48.670;9.060;2022-08-19T12:54:58;9.90;;;9.00;;
4001;SDS011;2015;48.670;9.060;2022-08-19T12:57:30;11.90;;;10.87;;
4001;SDS011;2015;48.670;9.060;2022-08-19T13:00:09;11.87;;;10.87;;
4001;SDS011;2015;48.670;9.060;2022-08-19T13:02:45;11.23;;;10.33;;
4001;SDS011;2015;48.670;9.060;2022-08-19T13:05:22;11.13;;;10.30;;
4001;SDS011;2015;48.670;9.060;2022-08-19T13:07:56;11.53;;;10.40;;
4001;SDS011;2015;48.670;9.060;2022-08-19T13:10:31;17.70;;;15.90;;
4001;SDS011;2015;48.670;9.060;2022-08-19T13:13:06;23.00;;;19.00;;
4001;SDS011;2015;48.670;9.060;2022-08-19T13:15:41;25.33;;;18.97;;
4001;SDS011;2015;48.670;9.060;2022-08-19T13:18:13;26.30;;;21.37;;
4001;SDS011;2015;48.670;9.060;2022-08-19T13:20:45;23.40;;;20.17;;
4001;SDS011;2015;48.670;9.060;2022-08-19T13:23:23;24.17;;;19.90;;
4001;SDS011;2015;48.670;9.060;2022-08-19T13:25:55;21.10;;;18.83;;
4001;SDS011;2015;48.670;9.060;2022-08-19T13:28:28;22.70;;;20.30;;
4001;SDS011;2015;48.670;9.060;2022-08-19T13:31:21;30.90;;;23.90;;
4001;SDS011;2015;48.670;9.060;2022-08-19T13:34:13;26.30;;;21.80;;
4001;SDS011;2015;48.670;9.060;2022-08-19T13:36:46;24.53;;;21.93;;
4001;SDS011;2015;48.670;9.060;2022-08-19T13:39:18;33.63;;;24.03;;
4001;SDS011;2015;48.670;9.060;2022-08-19T13:41:54;25.53;;;21.87;;
4001;SDS011;2015;48.670;9.060;2022-08-19T13:44:26;30.00;;;23.60;;
4001;SDS011;2015;48.670;9.060;2022-08-19T13:47:02;27.40;;;23.03;;
4001;SDS011;2015;48.670;9.060;2022-08-19T13:49:38;30.27;;;23.97;;
4001;SDS011;2015;48.670;9.060;2022-08-19T13:52:10;32.33;;;25.83;;
4001;SDS011;2015;48.670;9.060;2022-08-19T13:54:41;29.97;;;24.17;;
4001;SDS011;2015;48.670;9.060;2022-08-19T13:57:14;25.57;;;22.77;;
4001;SDS011;2015;48.670;9.060;2022-08-19T13:59:45;31.83;;;24.90;;
4001;SDS011;2015;48.670;9.060;2022-08-19T14:02:17;28.77;;;24.30;;
4001;SDS011;2015;48.670;9.060;2022-08-19T14:04:50;30.73;;;25.17;;
4001;SDS011;2015;48.670;9.060;2022-08-19T14:07:21;27.93;;;24.50;;
4001;SDS011;2015;48.670;9.060;2022-08-19T14:09:54;36.53;;;25.03;;
4001;SDS011;2015;48.670;9.060;2022-08-19T14:12:26;33.20;;;27.30;;
4001;SDS011;2015;48.670;9.060;2022-08-19T14:14:59;28.93;;;25.37;;
4001;SDS011;2015;48.670;9.060;2022-08-19T14:17:32;27.17;;;23.40;;
4001;SDS011;2015;48.670;9.060;2022-08-19T14:20:06;29.70;;;23.77;;
4001;SDS011;2015;48.670;9.060;2022-08-19T14:22:48;32.00;;;26.40;;
4001;SDS011;2015;48.670;9.060;2022-08-19T14:25:22;33.13;;;26.50;;
4001;SDS011;2015;48.670;9.060;2022-08-19T14:27:56;34.73;;;26.97;;
4001;SDS011;2015;48.670;9.060;2022-08-19T14:30:31;31.10;;;25.70;;
4001;SDS011;2015;48.670;9.060;2022-08-19T14:33:05;34.90;;;25.57;;
4001;SDS011;2015;48.670;9.060;2022-08-19T14:35:38;33.63;;;27.40;;
4001;SDS011;2015;48.670;9.060;2022-08-19T14:38:14;32.83;;;25.43;;
4001;SDS011;2015;48.670;9.060;2022-08-19T14:40:47;31.90;;;24.80;;
4001;SDS011;2015;48.670;9.060;2022-08-19T14:43:20;32.10;;;25.60;;
4001;SDS011;2015;48.670;9.060;2022-08-19T14:45:53;28.07;;;25.07;;
4001;SDS011;2015;48.670;9.060;2022-08-19T14:48:25;31.43;;;25.53;;
4001;SDS011;2015;48.670;9.060;2022-08-19T14:50:59;30.93;;;25.80;;
4001;SDS011;2015;48.670;9.060;2022-08-19T14:53:31;31.10;;;25.83;;
4001;SDS011;2015;48.670;9.060;2022-08-19T14:56:11;30.07;;;25.07;;
4001;SDS011;2015;48.670;9.060;2022-08-19T14:58:45;29.53;;;23.83;;
4001;SDS011;2015;48.670;9.060;2022-08-19T15:01:17;34.70;;;24.50;;
4001;SDS011;2015;48.670;9.060;2022-08-19T15:03:51;29.73;;;24.77;;
4001;SDS011;2015;48.670;9.060;2022-08-19T15:06:25;28.33;;;24.37;;
4001;SDS011;2015;48.670;9.060;2022-08-19T15:08:58;33.63;;;23.10;;
4001;SDS011;2015;48.670;9.060;2022-08-19T15:11:34;27.60;;;23.83;;
4001;SDS011;2015;48.670;9.060;2022-08-19T15:14:06;33.50;;;26.27;;
4001;SDS011;2015;48.670;9.060;2022-08-19T15:16:38;27.53;;;23.13;;
4001;SDS011;2015;48.670;9.060;2022-08-19T15:19:12;26.93;;;23.63;;
4001;SDS011;2015;48.670;9.060;2022-08-19T15:21:44;28.90;;;23.90;;
4001;SDS011;2015;48.670;9.060;2022-08-19T15:24:16;25.30;;;22.37;;
4001;SDS011;2015;48.670;9.060;2022-08-19T15:26:48;26.13;;;22.77;;
4001;SDS011;2015;48.670;9.060;2022-08-19T15:29:20;28.00;;;22.43;;
4001;SDS011;2015;48.670;9.060;2022-08-19T15:31:54;26.30;;;23.57;;
4001;SDS011;2015;48.670;9.060;2022-08-19T15:34:28;26.17;;;22.60;;
4001;SDS011;2015;48.670;9.060;2022-08-19T15:37:02;23.00;;;20.60;;
4001;SDS011;2015;48.670;9.060;2022-08-19T15:39:36;25.73;;;23.17;;
4001;SDS011;2015;48.670;9.060;2022-08-19T15:42:08;22.57;;;20.13;;
4001;SDS011;2015;48.670;9.060;2022-08-19T15:44:39;26.83;;;22.20;;
4001;SDS011;2015;48.670;9.060;2022-08-19T15:47:12;24.00;;;21.50;;
4001;SDS011;2015;48.670;9.060;2022-08-19T15:49:44;22.40;;;20.10;;
4001;SDS011;2015;48.670;9.060;2022-08-19T15:52:19;20.33;;;18.40;;
4001;SDS011;2015;48.670;9.060;2022-08-19T15:54:51;22.10;;;20.00;;
4001;SDS011;2015;48.670;9.060;2022-08-19T15:57:23;23.67;;;19.27;;
4001;SDS011;2015;48.670;9.060;2022-08-19T15:59:57;16.90;;;15.40;;